Time;durP1;ratioP1;P1;durP2;ratioP2;P2;SDS_P1;SDS_P2;PMS_P1;PMS_P2;Temp;Humidity;BMP_temperature;BMP_pressure;BME280_temperature;BME280_humidity;BME280_pressure;Samples;Min_cycle;Max_cycle;Signal;HPM_P1;HPM_P2
2022/01/16 00:00:17;;;;;;;;;;;;;;;-2.40;100.00;96524.97;1028845;28;19914;-75
2022/01/16 00:00:56;;;;;;;;;;;;;;;-2.38;100.00;96535.09;1029634;28;19948;-75
2022/01/16 00:04:13;;;;;;;;;;;;;;;-2.38;100.00;96511.97;1034346;28;19921;-74
2022/01/16 00:04:43;;;;;;;;;;;;;;;-2.40;100.00;96508.75;1030268;28;19920;-76
2022/01/16 00:05:14;;;;;;;;;;;;;;;-2.40;100.00;96498.47;1030644;28;20223;-76
2022/01/16 00:05:44;;;;;;;;;;;;;;;-2.42;100.00;96490.13;1030064;28;19924;-76
2022/01/16 00:06:16;;;;;;;;;;;;;;;-2.45;100.00;96485.28;1030355;28;19914;-73
2022/01/16 00:06:46;;;;;;;;;;;;;;;-2.68;100.00;96455.16;1030792;28;20401;-74
2022/01/16 00:07:17;;;;;;;;;;;;;;;-2.43;100.00;96488.50;1034397;28;19921;-74
2022/01/16 00:07:48;;;;;;;;;;;;;;;-2.47;100.00;96487.25;1026386;28;19910;-76
2022/01/16 00:08:19;;;;;;;;;;;;;;;-2.44;100.00;96497.19;1026313;28;19919;-76
2022/01/16 00:08:49;;;;;;;;;;;;;;;-2.48;100.00;96496.72;1028117;28;19913;-75
2022/01/16 00:09:19;;;;;;;;;;;;;;;-2.47;100.00;96502.66;1026365;28;20754;-74
2022/01/16 00:09:49;;;;;;;;;;;;;;;-2.50;100.00;96501.22;1026281;28;20242;-74
2022/01/16 00:10:20;;;;;;;;;;;;;;;-2.55;100.00;96506.00;1029832;28;19921;-75
2022/01/16 00:10:51;;;;;;;;;;;;;;;-2.54;100.00;96515.34;1029785;28;19914;-74
2022/01/16 00:11:23;;;;;;;;;;;;;;;-2.56;100.00;96514.69;1026434;28;20324;-76
2022/01/16 00:11:56;;;;;;;;;;;;;;;-2.55;100.00;96513.72;1030515;28;20474;-76
2022/01/16 00:12:26;;;;;;;;;;;;;;;-2.54;100.00;96515.34;1023781;28;19911;-72
2022/01/16 00:12:59;;;;;;;;;;;;;;;-2.50;100.00;96518.41;1022919;28;19918;-74
2022/01/16 00:13:29;;;;;;;;;;;;;;;-2.58;100.00;96510.69;1026209;28;20004;-75
2022/01/16 00:14:00;;;;;;;;;;;;;;;-2.58;100.00;96513.25;1024791;28;19914;-76
2022/01/16 00:14:30;;;;;;;;;;;;;;;-2.59;100.00;96520.16;1026837;28;19914;-74
2022/01/16 00:15:01;;;;;;;;;;;;;;;-2.59;100.00;96507.31;1022365;28;20263;-74
2022/01/16 00:15:31;;;;;;;;;;;;;;;-2.61;100.00;96517.75;1021439;28;19970;-76
2022/01/16 00:16:01;;;;;;;;;;;;;;;-2.60;100.00;96510.84;1026019;28;20408;-75
2022/01/16 00:16:32;;;;;;;;;;;;;;;-2.62;100.00;96505.06;1026227;28;20057;-75
2022/01/16 00:17:03;;;;;;;;;;;;;;;-2.62;100.00;96508.44;1035151;28;19940;-74
2022/01/16 00:17:41;;;;;;;;;;;;;;;-2.62;100.00;96513.59;1030370;28;20344;-76
2022/01/16 00:18:21;;;;;;;;;;;;;;;-2.69;100.00;96515.16;1030307;28;19914;-74
2022/01/16 00:18:54;;;;;;;;;;;;;;;-2.67;100.00;96515.03;1024426;28;19915;-75
2022/01/16 00:19:25;;;;;;;;;;;;;;;-2.64;100.00;96518.06;1024680;28;19957;-77
2022/01/16 00:19:55;;;;;;;;;;;;;;;-2.64;100.00;96507.81;1023417;28;19915;-75
2022/01/16 00:20:25;;;;;;;;;;;;;;;-2.61;100.00;96497.22;1022531;28;19921;-76
2022/01/16 00:20:56;;;;;;;;;;;;;;;-2.57;100.00;96496.88;1030424;28;20185;-76
2022/01/16 00:21:27;;;;;;;;;;;;;;;-2.61;100.00;96492.06;1030391;28;19944;-74
2022/01/16 00:21:58;;;;;;;;;;;;;;;-2.58;100.00;96492.69;1029916;28;20379;-73
2022/01/16 00:22:33;;;;;;;;;;;;;;;-2.54;100.00;96488.84;1027977;28;20008;-75
2022/01/16 00:23:06;;;;;;;;;;;;;;;-2.56;100.00;96488.22;1025780;28;19956;-75
2022/01/16 00:23:36;;;;;;;;;;;;;;;-2.52;100.00;96484.34;1026424;28;19961;-75
2022/01/16 00:24:06;;;;;;;;;;;;;;;-2.54;100.00;96479.38;1023680;28;19919;-75
2022/01/16 00:24:37;;;;;;;;;;;;;;;-2.53;100.00;96478.41;1026432;28;20384;-78
2022/01/16 00:25:07;;;;;;;;;;;;;;;-2.53;100.00;96490.47;1030395;28;19940;-74
2022/01/16 00:25:38;;;;;;;;;;;;;;;-2.49;100.00;96489.97;1030967;28;19917;-75
2022/01/16 00:26:08;;;;;;;;;;;;;;;-2.47;100.00;96482.91;1033327;28;20485;-72
2022/01/16 00:26:39;;;;;;;;;;;;;;;-2.43;100.00;96478.25;1030264;28;20319;-75
2022/01/16 00:27:09;;;;;;;;;;;;;;;-2.43;100.00;96485.94;1025680;28;19910;-75
2022/01/16 00:27:39;;;;;;;;;;;;;;;-2.44;100.00;96479.22;1024532;28;19953;-75
2022/01/16 00:28:10;;;;;;;;;;;;;;;-2.47;100.00;96474.41;1020909;28;20301;-74
2022/01/16 00:28:40;;;;;;;;;;;;;;;-2.49;100.00;96476.31;1027892;28;19914;-74
2022/01/16 00:29:12;;;;;;;;;;;;;;;-2.49;100.00;96473.75;1030601;28;20319;-74
2022/01/16 00:29:42;;;;;;;;;;;;;;;-2.50;100.00;96470.38;1030433;28;19910;-76
2022/01/16 00:30:13;;;;;;;;;;;;;;;-2.46;100.00;96465.72;1030418;28;19914;-74
2022/01/16 00:30:43;;;;;;;;;;;;;;;-2.48;100.00;96465.88;1030488;28;20371;-76
2022/01/16 00:31:13;;;;;;;;;;;;;;;-2.48;100.00;96459.94;1034402;28;20334;-74
2022/01/16 00:31:45;;;;;;;;;;;;;;;-2.47;100.00;96461.56;1030167;28;19909;-74
2022/01/16 00:32:15;;;;;;;;;;;;;;;-2.49;100.00;96468.59;1027178;28;19971;-76
2022/01/16 00:32:46;;;;;;;;;;;;;;;-2.49;100.00;96466.84;1025511;28;19962;-77
2022/01/16 00:33:16;;;;;;;;;;;;;;;-2.50;100.00;96472.94;1025986;28;20016;-77
2022/01/16 00:33:46;;;;;;;;;;;;;;;-2.51;100.00;96471.34;1024677;28;20442;-74
2022/01/16 00:34:17;;;;;;;;;;;;;;;-2.51;100.00;96475.69;1033642;28;19909;-74
2022/01/16 00:34:47;;;;;;;;;;;;;;;-2.49;100.00;96487.38;1027318;28;19918;-78
2022/01/16 00:35:17;;;;;;;;;;;;;;;-2.50;100.00;96479.84;1022107;29;20442;-77
2022/01/16 00:35:47;;;;;;;;;;;;;;;-2.46;100.00;96489.63;1024449;28;19914;-73
2022/01/16 00:36:19;;;;;;;;;;;;;;;-2.41;100.00;96476.31;1031802;28;19918;-74
2022/01/16 00:36:49;;;;;;;;;;;;;;;-2.40;100.00;96472.78;1034340;28;19913;-74
2022/01/16 00:37:19;;;;;;;;;;;;;;;-2.38;100.00;96481.13;1033600;28;19935;-74
2022/01/16 00:37:52;;;;;;;;;;;;;;;-2.41;100.00;96476.31;1027323;28;19917;-76
2022/01/16 00:38:22;;;;;;;;;;;;;;;-2.42;100.00;96477.25;1022368;29;19910;-72
2022/01/16 00:38:53;;;;;;;;;;;;;;;-2.41;100.00;96481.47;1022524;28;20401;-76
2022/01/16 00:39:24;;;;;;;;;;;;;;;-2.40;100.00;96483.06;1025869;28;20358;-75
2022/01/16 00:39:54;;;;;;;;;;;;;;;-2.37;100.00;96480.97;1030252;28;19945;-74
2022/01/16 00:40:24;;;;;;;;;;;;;;;-2.34;100.00;96481.63;1030326;28;19914;-74
2022/01/16 00:40:55;;;;;;;;;;;;;;;-2.38;100.00;96463.94;1026023;28;19914;-77
2022/01/16 00:41:25;;;;;;;;;;;;;;;-2.43;100.00;96465.41;1027798;28;20073;-74
2022/01/16 00:41:56;;;;;;;;;;;;;;;-2.42;100.00;96467.00;1022212;28;19915;-74
2022/01/16 00:42:26;;;;;;;;;;;;;;;-2.43;100.00;96473.09;1026425;28;19914;-73
2022/01/16 00:42:57;;;;;;;;;;;;;;;-2.36;100.00;96484.31;1033588;28;20040;-74
2022/01/16 00:43:27;;;;;;;;;;;;;;;-2.31;100.00;96496.69;1031899;28;20381;-75
2022/01/16 00:43:57;;;;;;;;;;;;;;;-2.31;100.00;96496.69;1034259;28;20370;-74
2022/01/16 00:44:27;;;;;;;;;;;;;;;-2.32;100.00;96505.38;1034391;28;19914;-78
2022/01/16 00:44:58;;;;;;;;;;;;;;;-2.31;100.00;96492.38;1038185;28;19909;-74
2022/01/16 00:45:34;;;;;;;;;;;;;;;-2.33;100.00;96490.91;1030283;28;19918;-73
2022/01/16 00:46:04;;;;;;;;;;;;;;;-2.37;100.00;96487.88;1034411;28;19909;-75
2022/01/16 00:46:35;;;;;;;;;;;;;;;-2.38;100.00;96494.78;1025985;28;20413;-75
2022/01/16 00:47:05;;;;;;;;;;;;;;;-2.33;100.00;96490.91;1027284;28;19914;-75
2022/01/16 00:47:35;;;;;;;;;;;;;;;-2.35;100.00;96491.06;1034111;28;19913;-74
2022/01/16 00:48:06;;;;;;;;;;;;;;;-2.39;100.00;96493.16;1037849;28;19999;-74
2022/01/16 00:48:36;;;;;;;;;;;;;;;-2.33;100.00;96484.00;1033596;28;20426;-72
2022/01/16 00:49:06;;;;;;;;;;;;;;;-2.31;100.00;96491.53;1034601;28;20395;-74
2022/01/16 00:49:39;;;;;;;;;;;;;;;-2.35;100.00;96490.25;1038368;28;20413;-75
2022/01/16 00:50:09;;;;;;;;;;;;;;;-2.31;100.00;96482.09;1031403;28;19936;-76
2022/01/16 00:50:40;;;;;;;;;;;;;;;-2.31;100.00;96482.09;1030616;28;19969;-74
2022/01/16 00:51:10;;;;;;;;;;;;;;;-2.28;100.00;96471.47;1026478;28;19911;-73
2022/01/16 00:51:40;;;;;;;;;;;;;;;-2.29;100.00;96464.72;1024127;28;20030;-73
2022/01/16 00:52:11;;;;;;;;;;;;;;;-2.49;100.00;96433.44;1022362;29;19953;-74
2022/01/16 00:52:41;;;;;;;;;;;;;;;-2.27;100.00;96472.28;1021144;28;19911;-73
2022/01/16 00:53:11;;;;;;;;;;;;;;;-2.23;100.00;96473.56;1026306;28;20399;-74
2022/01/16 00:53:43;;;;;;;;;;;;;;;-2.23;100.00;96476.91;1025905;28;19914;-76
2022/01/16 00:54:13;;;;;;;;;;;;;;;-2.27;100.00;96478.22;1022544;28;19906;-73
2022/01/16 00:54:43;;;;;;;;;;;;;;;-2.33;100.00;96484.00;1022360;29;19962;-75
2022/01/16 00:55:14;;;;;;;;;;;;;;;-2.35;100.00;96483.34;1023352;28;19914;-75
2022/01/16 00:55:44;;;;;;;;;;;;;;;-2.34;100.00;96487.53;1022112;29;20392;-74
2022/01/16 00:56:14;;;;;;;;;;;;;;;-2.39;100.00;96484.66;1026480;28;19914;-75
2022/01/16 00:56:45;;;;;;;;;;;;;;;-2.37;100.00;96477.59;1025675;28;19915;-74
2022/01/16 00:57:15;;;;;;;;;;;;;;;-2.36;100.00;96476.63;1018601;29;19911;-74
2022/01/16 00:57:45;;;;;;;;;;;;;;;-2.39;100.00;96477.75;1018500;29;19915;-73
2022/01/16 00:58:15;;;;;;;;;;;;;;;-2.38;100.00;96470.84;1026390;28;20004;-75
2022/01/16 00:58:46;;;;;;;;;;;;;;;-2.38;100.00;96476.00;1031240;28;20342;-74
2022/01/16 00:59:16;;;;;;;;;;;;;;;-2.34;100.00;96477.28;1034460;28;19914;-74
2022/01/16 00:59:48;;;;;;;;;;;;;;;-2.31;100.00;96479.53;1034355;28;19913;-73
2022/01/16 01:00:18;;;;;;;;;;;;;;;-2.31;100.00;96474.38;1030072;28;19913;-74
2022/01/16 01:00:49;;;;;;;;;;;;;;;-2.28;100.00;96475.78;1026307;28;20008;-73
2022/01/16 01:01:19;;;;;;;;;;;;;;;-2.30;100.00;96473.41;1026439;28;19914;-73
2022/01/16 01:01:50;;;;;;;;;;;;;;;-2.33;100.00;96472.94;1022939;28;19915;-74
2022/01/16 01:02:20;;;;;;;;;;;;;;;-2.30;100.00;96481.13;1026262;28;20671;-76
2022/01/16 01:02:54;;;;;;;;;;;;;;;-2.31;100.00;96481.25;1029598;28;19918;-75
2022/01/16 01:03:25;;;;;;;;;;;;;;;-2.29;100.00;96476.78;1026177;28;19922;-74
2022/01/16 01:03:57;;;;;;;;;;;;;;;-2.33;100.00;96483.22;1029860;28;20126;-74
2022/01/16 01:04:27;;;;;;;;;;;;;;;-2.34;100.00;96487.53;1031107;28;20012;-74
2022/01/16 01:04:58;;;;;;;;;;;;;;;-2.28;100.00;96496.34;1026736;28;19914;-76
2022/01/16 01:05:28;;;;;;;;;;;;;;;-2.28;100.00;96497.19;1029387;28;19910;-76
2022/01/16 01:05:58;;;;;;;;;;;;;;;-2.26;100.00;96504.72;1026380;28;19914;-77
2022/01/16 01:06:29;;;;;;;;;;;;;;;-2.25;100.00;96496.81;1026219;28;20367;-75
2022/01/16 01:06:59;;;;;;;;;;;;;;;-2.28;100.00;96496.34;1025945;28;19973;-74
2022/01/16 01:07:29;;;;;;;;;;;;;;;-2.27;100.00;96503.13;1026438;28;20319;-74
2022/01/16 01:08:00;;;;;;;;;;;;;;;-2.28;100.00;96510.03;1030291;28;19914;-77
2022/01/16 01:08:30;;;;;;;;;;;;;;;-2.32;100.00;96513.88;1026645;28;19961;-74
2022/01/16 01:09:01;;;;;;;;;;;;;;;-2.34;100.00;96518.38;1030206;28;20354;-74
2022/01/16 01:09:31;;;;;;;;;;;;;;;-2.35;100.00;96521.09;1030244;28;19953;-74
2022/01/16 01:10:02;;;;;;;;;;;;;;;-2.35;100.00;96521.91;1022351;28;19911;-75
2022/01/16 01:10:36;;;;;;;;;;;;;;;-2.35;100.00;96511.63;1029229;28;19910;-74
2022/01/16 01:11:11;;;;;;;;;;;;;;;-2.31;100.00;96520.63;1027052;28;20383;-75
2022/01/16 01:11:44;;;;;;;;;;;;;;;-2.32;100.00;96513.88;1026163;28;20304;-75
2022/01/16 01:12:25;;;;;;;;;;;;;;;-2.35;100.00;96511.63;1024066;28;19980;-75
2022/01/16 01:13:07;;;;;;;;;;;;;;;-2.38;100.00;96506.84;1030524;28;19955;-73
2022/01/16 01:14:08;;;;;;;;;;;;;;;-2.35;100.00;96501.34;1037650;28;20378;-72
2022/01/16 01:14:41;;;;;;;;;;;;;;;-2.35;100.00;96501.34;1038183;28;19913;-74
2022/01/16 01:15:12;;;;;;;;;;;;;;;-2.39;100.00;96502.63;1034498;28;20307;-76
2022/01/16 01:15:48;;;;;;;;;;;;;;;-2.61;100.00;96478.44;1031437;28;19917;-74
2022/01/16 01:16:18;;;;;;;;;;;;;;;-2.41;100.00;96502.81;1034123;28;20313;-74
2022/01/16 01:16:53;;;;;;;;;;;;;;;-2.38;100.00;96502.50;1035476;28;19914;-76
2022/01/16 01:17:24;;;;;;;;;;;;;;;-2.36;100.00;96494.59;1033563;28;20294;-75
2022/01/16 01:17:55;;;;;;;;;;;;;;;-2.38;100.00;96491.41;1026251;28;20431;-74
2022/01/16 01:18:25;;;;;;;;;;;;;;;-2.38;100.00;96479.38;1022393;29;19918;-74
2022/01/16 01:18:55;;;;;;;;;;;;;;;-2.37;100.00;96473.25;1018074;29;20340;-73
2022/01/16 01:19:31;;;;;;;;;;;;;;;-2.38;100.00;96468.28;1018422;29;19936;-73
2022/01/16 01:20:02;;;;;;;;;;;;;;;-2.39;100.00;96443.53;1019093;29;19911;-75
2022/01/16 01:20:32;;;;;;;;;;;;;;;-2.41;100.00;96433.44;1026276;28;20030;-76
2022/01/16 01:21:05;;;;;;;;;;;;;;;-2.46;100.00;96429.75;1034675;28;20430;-75
2022/01/16 01:21:35;;;;;;;;;;;;;;;-2.46;100.00;96422.84;1035513;28;19910;-75
2022/01/16 01:22:06;;;;;;;;;;;;;;;-2.43;100.00;96422.50;1038249;28;19909;-76
2022/01/16 01:22:36;;;;;;;;;;;;;;;-2.41;100.00;96419.78;1034099;28;19918;-73
2022/01/16 01:23:07;;;;;;;;;;;;;;;-2.39;100.00;96413.50;1029875;28;19961;-76
2022/01/16 01:23:37;;;;;;;;;;;;;;;-2.40;100.00;96421.38;1034449;28;20078;-74
2022/01/16 01:24:07;;;;;;;;;;;;;;;-2.43;100.00;96401.94;1031668;28;20510;-77
2022/01/16 01:24:37;;;;;;;;;;;;;;;-2.42;100.00;96407.88;1030191;28;20014;-76
2022/01/16 01:25:09;;;;;;;;;;;;;;;-2.39;100.00;96407.56;1022114;28;20306;-75
2022/01/16 01:25:39;;;;;;;;;;;;;;;-2.41;100.00;96412.09;1026231;28;20331;-75
2022/01/16 01:26:09;;;;;;;;;;;;;;;-2.44;100.00;96409.84;1022672;28;20053;-74
2022/01/16 01:26:50;;;;;;;;;;;;;;;-2.44;100.00;96412.41;1030544;28;19918;-74
2022/01/16 01:27:23;;;;;;;;;;;;;;;-2.40;100.00;96411.09;1034310;28;20362;-75
2022/01/16 01:27:53;;;;;;;;;;;;;;;-2.44;100.00;96410.63;1033099;28;20322;-75
2022/01/16 01:28:24;;;;;;;;;;;;;;;-2.44;100.00;96407.28;1036250;28;19914;-74
2022/01/16 01:28:54;;;;;;;;;;;;;;;-2.45;100.00;96408.22;1028914;28;19914;-76
2022/01/16 01:29:28;;;;;;;;;;;;;;;-2.48;100.00;96408.53;1024571;28;19918;-76
2022/01/16 01:30:05;;;;;;;;;;;;;;;-2.47;100.00;96405.03;1026667;28;19922;-76
2022/01/16 01:30:37;;;;;;;;;;;;;;;-2.45;100.00;96405.66;1023445;28;20017;-74
2022/01/16 01:31:07;;;;;;;;;;;;;;;-2.46;100.00;96407.41;1019512;29;20687;-74
2022/01/16 01:31:37;;;;;;;;;;;;;;;-2.45;100.00;96413.34;1022265;29;19956;-77
2022/01/16 01:32:08;;;;;;;;;;;;;;;-2.44;100.00;96418.34;1022628;28;19914;-74
2022/01/16 01:32:39;;;;;;;;;;;;;;;-2.41;100.00;96422.34;1025495;28;19941;-71
2022/01/16 01:33:09;;;;;;;;;;;;;;;-2.42;100.00;96433.59;1026059;28;19915;-75
2022/01/16 01:33:39;;;;;;;;;;;;;;;-2.42;100.00;96438.72;1029092;28;20408;-70
2022/01/16 01:34:10;;;;;;;;;;;;;;;-2.43;100.00;96437.13;1030731;28;19910;-74
2022/01/16 01:34:40;;;;;;;;;;;;;;;-2.43;100.00;96452.53;1027029;28;19921;-71
2022/01/16 01:35:11;;;;;;;;;;;;;;;-2.41;100.00;96450.63;1030830;28;19917;-76
2022/01/16 01:35:41;;;;;;;;;;;;;;;-2.40;100.00;96457.34;1027770;28;19945;-78
2022/01/16 01:36:11;;;;;;;;;;;;;;;-2.40;100.00;96465.06;1024476;28;19910;-75
2022/01/16 01:36:42;;;;;;;;;;;;;;;-2.40;100.00;96470.22;1023116;29;19910;-76
2022/01/16 01:37:12;;;;;;;;;;;;;;;-2.40;100.00;96457.34;1019233;29;20407;-75
2022/01/16 01:37:42;;;;;;;;;;;;;;;-2.40;100.00;96457.34;1026391;28;19925;-74
2022/01/16 01:38:17;;;;;;;;;;;;;;;-2.44;100.00;96461.22;1035206;28;20129;-75
2022/01/16 01:38:47;;;;;;;;;;;;;;;-2.41;100.00;96461.69;1037794;28;20582;-76
2022/01/16 01:39:18;;;;;;;;;;;;;;;-2.41;100.00;96459.13;1028519;28;19910;-78
2022/01/16 01:39:49;;;;;;;;;;;;;;;-2.47;100.00;96466.69;1030916;28;19921;-74
2022/01/16 01:40:20;;;;;;;;;;;;;;;-2.47;100.00;96466.69;1030912;28;19914;-74
2022/01/16 01:40:51;;;;;;;;;;;;;;;-2.47;100.00;96464.13;1030018;28;19914;-74
2022/01/16 01:41:21;;;;;;;;;;;;;;;-2.46;100.00;96468.28;1034926;28;20548;-76
2022/01/16 01:42:03;;;;;;;;;;;;;;;-2.43;100.00;96467.97;1030693;28;19914;-73
2022/01/16 01:42:42;;;;;;;;;;;;;;;-2.43;100.00;96463.63;1028231;28;20209;-75
2022/01/16 01:51:05;;;;;;;;;;;;;;;-2.41;100.00;96484.03;1022263;29;20395;-73
2022/01/16 01:51:37;;;;;;;;;;;;;;;-2.41;100.00;96484.03;1024201;28;19921;-76
2022/01/16 01:52:08;;;;;;;;;;;;;;;-2.43;100.00;96470.53;1026816;28;19910;-76
2022/01/16 01:52:38;;;;;;;;;;;;;;;-2.43;100.00;96473.09;1023282;28;20295;-72
2022/01/16 01:53:08;;;;;;;;;;;;;;;-2.41;100.00;96471.19;1025180;28;19914;-71
2022/01/16 01:53:39;;;;;;;;;;;;;;;-2.41;100.00;96471.19;1030938;28;20382;-74
2022/01/16 01:54:09;;;;;;;;;;;;;;;-2.40;100.00;96463.28;1034866;28;19946;-75
2022/01/16 01:54:39;;;;;;;;;;;;;;;-2.36;100.00;96461.19;1034939;28;19909;-76
2022/01/16 01:55:10;;;;;;;;;;;;;;;-2.37;100.00;96457.03;1038018;28;19925;-74
2022/01/16 01:55:44;;;;;;;;;;;;;;;-2.38;100.00;96458.81;1039777;28;20383;-76
2022/01/16 01:56:17;;;;;;;;;;;;;;;-2.38;100.00;96476.00;1037977;28;20386;-74
2022/01/16 01:56:47;;;;;;;;;;;;;;;-2.36;100.00;96463.78;1035129;28;20473;-71
2022/01/16 01:57:18;;;;;;;;;;;;;;;-2.35;100.00;96462.00;1037079;28;19921;-73
2022/01/16 01:57:48;;;;;;;;;;;;;;;-2.35;100.00;96465.38;1031918;28;19925;-75
2022/01/16 01:58:20;;;;;;;;;;;;;;;-2.36;100.00;96463.78;1030544;28;20316;-74
2022/01/16 01:58:51;;;;;;;;;;;;;;;-2.39;100.00;96467.47;1023580;29;19910;-74
2022/01/16 01:59:21;;;;;;;;;;;;;;;-2.42;100.00;96474.69;1020675;28;20304;-73
2022/01/16 01:59:51;;;;;;;;;;;;;;;-2.43;100.00;96479.03;1028017;28;20327;-78
2022/01/16 02:00:22;;;;;;;;;;;;;;;-2.43;100.00;96483.38;1030944;28;20319;-74
2022/01/16 02:00:52;;;;;;;;;;;;;;;-2.47;100.00;96477.75;1036591;28;19920;-75
2022/01/16 02:01:22;;;;;;;;;;;;;;;-2.48;100.00;96480.47;1033889;28;19922;-76
2022/01/16 02:01:53;;;;;;;;;;;;;;;-2.45;100.00;96478.41;1032780;28;19914;-74
2022/01/16 02:02:26;;;;;;;;;;;;;;;-2.48;100.00;96485.63;1032232;28;20360;-76
2022/01/16 02:03:42;;;;;;;;;;;;;;;-2.54;100.00;96483.72;1032202;28;20004;-74
2022/01/16 02:04:13;;;;;;;;;;;;;;;-2.54;100.00;96491.44;1037338;28;19918;-74
2022/01/16 02:04:43;;;;;;;;;;;;;;;-2.57;100.00;96487.41;1038847;28;20348;-74
2022/01/16 02:05:13;;;;;;;;;;;;;;;-2.77;100.00;96460.44;1036492;28;19922;-74
2022/01/16 02:05:44;;;;;;;;;;;;;;;-2.54;100.00;96487.09;1032889;28;20320;-75
2022/01/16 02:06:21;;;;;;;;;;;;;;;-2.52;100.00;96494.63;1032758;28;20493;-73
2022/01/16 02:06:51;;;;;;;;;;;;;;;-2.50;100.00;96498.63;1034672;28;19917;-74
2022/01/16 02:07:21;;;;;;;;;;;;;;;-2.52;100.00;96486.91;1032094;28;19918;-74
2022/01/16 02:07:52;;;;;;;;;;;;;;;-2.51;100.00;96496.25;1033094;28;19918;-75
2022/01/16 02:08:22;;;;;;;;;;;;;;;-2.47;100.00;96497.53;1028071;28;20431;-75
2022/01/16 02:08:53;;;;;;;;;;;;;;;-2.49;100.00;96504.56;1031582;28;20215;-74
2022/01/16 02:09:23;;;;;;;;;;;;;;;-2.55;100.00;96498.31;1031938;28;19914;-74
2022/01/16 02:09:54;;;;;;;;;;;;;;;-2.55;100.00;96506.00;1028108;28;19925;-74
2022/01/16 02:10:24;;;;;;;;;;;;;;;-2.53;100.00;96508.44;1028105;28;20016;-76
2022/01/16 02:10:56;;;;;;;;;;;;;;;-2.53;100.00;96508.44;1031939;28;19972;-76
2022/01/16 02:11:28;;;;;;;;;;;;;;;-2.55;100.00;96505.22;1028281;28;19977;-74
2022/01/16 02:11:59;;;;;;;;;;;;;;;-2.58;100.00;96513.25;1031894;28;19964;-77
2022/01/16 02:12:30;;;;;;;;;;;;;;;-2.55;100.00;96510.34;1035589;28;19924;-74
2022/01/16 02:13:04;;;;;;;;;;;;;;;-2.53;100.00;96513.56;1034827;28;20397;-73
2022/01/16 02:13:46;;;;;;;;;;;;;;;-2.54;100.00;96517.13;1036125;28;20390;-74
2022/01/16 02:15:04;;;;;;;;;;;;;;;-2.50;100.00;96515.81;1030793;28;19918;-76
2022/01/16 02:29:53;;;;;;;;;;;;;;;-2.54;100.00;96496.56;1031833;28;19956;-74
2022/01/16 02:30:00;;;;;;;;;;;;;;;-2.49;100.00;96484.81;1021469;28;19922;-75
2022/01/16 02:31:31;;;;;;;;;;;;;;;-2.51;100.00;96475.69;1039951;28;20333;-74
2022/01/16 02:32:27;;;;;;;;;;;;;;;-2.55;100.00;96477.75;1036790;28;19913;-74
2022/01/16 02:35:19;;;;;;;;;;;;;;;-2.49;100.00;96474.53;1019430;29;19919;-73
2022/01/16 02:35:52;;;;;;;;;;;;;;;-2.46;100.00;96468.28;1020451;28;20324;-76
2022/01/16 02:36:31;;;;;;;;;;;;;;;-2.48;100.00;96471.03;1019580;29;19922;-75
2022/01/16 02:37:06;;;;;;;;;;;;;;;-2.52;100.00;96468.94;1019511;29;20025;-76
2022/01/16 02:37:36;;;;;;;;;;;;;;;-2.53;100.00;96475.03;1020379;29;19929;-72
2022/01/16 02:38:08;;;;;;;;;;;;;;;-2.51;100.00;96470.56;1019544;29;20332;-76
2022/01/16 02:38:38;;;;;;;;;;;;;;;-2.49;100.00;96469.41;1016545;29;20433;-74
2022/01/16 02:39:12;;;;;;;;;;;;;;;-2.46;100.00;96458.81;1020079;29;19926;-74
2022/01/16 02:39:46;;;;;;;;;;;;;;;-2.43;100.00;96465.41;1027762;28;20303;-74
2022/01/16 02:40:20;;;;;;;;;;;;;;;-2.42;100.00;96447.22;1027473;28;19914;-75
2022/01/16 02:40:52;;;;;;;;;;;;;;;-2.40;100.00;96452.22;1027855;28;19953;-75
2022/01/16 02:41:23;;;;;;;;;;;;;;;-2.45;100.00;96450.16;1024819;28;19929;-76
2022/01/16 02:41:55;;;;;;;;;;;;;;;-2.50;100.00;96444.69;1029943;28;19925;-75
2022/01/16 02:42:28;;;;;;;;;;;;;;;-2.54;100.00;96443.41;1035747;28;19920;-76
2022/01/16 02:42:58;;;;;;;;;;;;;;;-2.54;100.00;96445.19;1035165;28;19921;-73
2022/01/16 02:43:34;;;;;;;;;;;;;;;-2.52;100.00;96449.19;1028280;28;19920;-75
2022/01/16 02:44:15;;;;;;;;;;;;;;;-2.55;100.00;96444.34;1031716;28;19922;-74
2022/01/16 02:44:50;;;;;;;;;;;;;;;-2.52;100.00;96443.25;1032575;28;20430;-75
2022/01/16 02:45:32;;;;;;;;;;;;;;;-2.53;100.00;96436.50;1037943;28;19920;-74
2022/01/16 02:46:46;;;;;;;;;;;;;;;-2.47;100.00;96443.56;1035729;28;20061;-75
2022/01/16 02:47:17;;;;;;;;;;;;;;;-2.45;100.00;96433.91;1027604;28;19945;-73
2022/01/16 02:47:48;;;;;;;;;;;;;;;-2.46;100.00;96437.44;1025774;28;19957;-71
2022/01/16 02:48:18;;;;;;;;;;;;;;;-2.44;100.00;96445.81;1029131;28;19919;-71
2022/01/16 02:48:49;;;;;;;;;;;;;;;-2.43;100.00;96437.94;1023717;29;20089;-72
2022/01/16 02:49:23;;;;;;;;;;;;;;;-2.43;100.00;96435.34;1023558;28;19914;-74
2022/01/16 02:49:54;;;;;;;;;;;;;;;-2.45;100.00;96428.78;1019453;29;19919;-75
2022/01/16 02:50:24;;;;;;;;;;;;;;;-2.43;100.00;96427.66;1020754;28;19922;-75
2022/01/16 02:50:54;;;;;;;;;;;;;;;-2.39;100.00;96425.56;1028449;28;20276;-75
2022/01/16 02:51:25;;;;;;;;;;;;;;;-2.40;100.00;96426.53;1027774;28;20377;-74
2022/01/16 02:51:59;;;;;;;;;;;;;;;-2.45;100.00;96419.31;1039507;28;19917;-74
2022/01/16 02:52:29;;;;;;;;;;;;;;;-2.45;100.00;96421.06;1035413;28;20029;-74
2022/01/16 02:53:00;;;;;;;;;;;;;;;-2.47;100.00;96426.38;1031817;28;19968;-72
2022/01/16 02:53:30;;;;;;;;;;;;;;;-2.46;100.00;96417.69;1032726;28;19994;-74
2022/01/16 02:54:01;;;;;;;;;;;;;;;-2.45;100.00;96415.91;1035820;28;19972;-74
2022/01/16 02:54:35;;;;;;;;;;;;;;;-2.46;100.00;96414.31;1035722;28;20286;-77
2022/01/16 02:55:06;;;;;;;;;;;;;;;-2.47;100.00;96416.09;1037797;28;20009;-76
2022/01/16 02:55:40;;;;;;;;;;;;;;;-2.44;100.00;96417.53;1039910;28;19964;-74
2022/01/16 02:56:11;;;;;;;;;;;;;;;-2.48;100.00;96414.50;1041091;28;19927;-73
2022/01/16 02:56:43;;;;;;;;;;;;;;;-2.47;100.00;96418.66;1042302;28;19923;-74
2022/01/16 02:57:14;;;;;;;;;;;;;;;-2.43;100.00;96416.56;1031727;28;19917;-74
2022/01/16 02:57:44;;;;;;;;;;;;;;;-2.43;100.00;96411.44;1032369;28;19918;-74
2022/01/16 02:58:14;;;;;;;;;;;;;;;-2.45;100.00;96414.19;1035506;28;19925;-73
2022/01/16 02:58:45;;;;;;;;;;;;;;;-2.48;100.00;96416.25;1033966;28;20441;-74
2022/01/16 02:59:17;;;;;;;;;;;;;;;-2.47;100.00;96410.97;1028314;28;19913;-73
2022/01/16 02:59:48;;;;;;;;;;;;;;;-2.49;100.00;96404.38;1032712;28;19976;-74
2022/01/16 03:00:19;;;;;;;;;;;;;;;-2.46;100.00;96411.75;1029693;28;19913;-75
2022/01/16 03:00:49;;;;;;;;;;;;;;;-2.50;100.00;96411.28;1026589;28;20319;-74
2022/01/16 03:01:19;;;;;;;;;;;;;;;-2.49;100.00;96414.66;1026853;28;20012;-75
2022/01/16 03:01:50;;;;;;;;;;;;;;;-2.49;100.00;96406.94;1022656;29;19926;-72
2022/01/16 03:02:20;;;;;;;;;;;;;;;-2.46;100.00;96410.00;1021733;28;19918;-75
2022/01/16 03:02:51;;;;;;;;;;;;;;;-2.48;100.00;96413.69;1025064;28;19922;-72
2022/01/16 03:03:22;;;;;;;;;;;;;;;-2.46;100.00;96416.91;1030678;28;19917;-73
2022/01/16 03:03:52;;;;;;;;;;;;;;;-2.44;100.00;96407.28;1030626;28;19925;-76
2022/01/16 03:04:23;;;;;;;;;;;;;;;-2.46;100.00;96409.19;1030591;28;20074;-75
2022/01/16 03:04:53;;;;;;;;;;;;;;;-2.43;100.00;96421.72;1030544;28;19918;-74
2022/01/16 03:05:23;;;;;;;;;;;;;;;-2.44;100.00;96417.53;1030190;28;20341;-74
2022/01/16 03:05:54;;;;;;;;;;;;;;;-2.43;100.00;96411.44;1026710;28;19933;-74
2022/01/16 03:06:27;;;;;;;;;;;;;;;-2.43;100.00;96417.38;1030619;28;19921;-73
2022/01/16 03:07:01;;;;;;;;;;;;;;;-2.47;100.00;96428.16;1026389;28;19929;-76
2022/01/16 03:07:31;;;;;;;;;;;;;;;-2.46;100.00;96422.03;1031570;28;20308;-76
2022/01/16 03:08:04;;;;;;;;;;;;;;;-2.43;100.00;96411.44;1031410;28;20339;-76
2022/01/16 03:08:34;;;;;;;;;;;;;;;-2.40;100.00;96414.47;1031321;28;19925;-74
2022/01/16 03:09:07;;;;;;;;;;;;;;;-2.41;100.00;96420.59;1034836;28;19921;-74
2022/01/16 03:10:53;;;;;;;;;;;;;;;-2.38;100.00;96414.31;1033212;28;19913;-73
2022/01/16 03:12:01;;;;;;;;;;;;;;;-2.39;100.00;96410.13;1034433;28;19925;-74
2022/01/16 03:12:31;;;;;;;;;;;;;;;-2.37;100.00;96410.78;1034639;28;19957;-73
2022/01/16 03:13:02;;;;;;;;;;;;;;;-2.39;100.00;96417.84;1034372;28;19986;-74
2022/01/16 03:13:33;;;;;;;;;;;;;;;-2.38;100.00;96417.69;1026777;28;19918;-73
2022/01/16 03:14:04;;;;;;;;;;;;;;;-2.35;100.00;96413.16;1019114;29;20377;-74